createdAt,value
2022-10-20T00:01:23.690Z,8.75
2022-10-20T00:06:32.851Z,8.60
2022-10-20T00:11:38.361Z,8.35
2022-10-20T00:16:43.848Z,7.53
2022-10-20T00:21:51.853Z,7.45
2022-10-20T00:26:57.098Z,6.88
2022-10-20T00:32:02.420Z,6.28
2022-10-20T00:37:10.277Z,6.30
2022-10-20T00:42:18.982Z,6.20
2022-10-20T00:47:28.945Z,6.03
2022-10-20T00:52:37.617Z,6.78
2022-10-20T00:57:44.265Z,6.80
2022-10-20T01:02:49.693Z,6.07
2022-10-20T01:07:57.397Z,6.03
2022-10-20T01:13:08.237Z,5.65
2022-10-20T01:18:18.822Z,6.95
2022-10-20T01:24:00.079Z,7.38
2022-10-20T01:29:09.672Z,6.40
2022-10-20T01:34:19.725Z,5.77
2022-10-20T01:39:28.937Z,6.13
2022-10-20T01:44:37.998Z,7.03
2022-10-20T01:49:45.758Z,7.05
2022-10-20T01:54:50.995Z,7.45
2022-10-20T02:00:07.363Z,8.30
2022-10-20T02:05:22.593Z,8.07
2022-10-20T02:10:30.522Z,8.23
2022-10-20T02:15:40.410Z,8.27
2022-10-20T02:20:46.904Z,8.35
2022-10-20T02:25:53.239Z,7.63
2022-10-20T02:31:01.197Z,7.10
2022-10-20T02:36:10.627Z,5.78
2022-10-20T02:41:16.036Z,5.97
2022-10-20T02:46:23.854Z,5.93
2022-10-20T02:51:29.023Z,5.82
2022-10-20T02:56:34.127Z,4.97
2022-10-20T03:01:41.985Z,5.32
2022-10-20T03:06:47.110Z,6.00
2022-10-20T03:11:52.199Z,4.85
2022-10-20T03:17:00.094Z,5.28
2022-10-20T03:22:05.286Z,5.15
2022-10-20T03:27:10.665Z,4.30
2022-10-20T03:32:18.609Z,5.40
2022-10-20T03:37:23.710Z,4.90
2022-10-20T03:42:28.909Z,5.70
2022-10-20T03:47:36.655Z,4.97
2022-10-20T03:52:41.734Z,4.20
2022-10-20T03:57:46.858Z,4.03
2022-10-20T04:02:54.907Z,4.68
2022-10-20T04:08:00.206Z,4.20
2022-10-20T04:13:05.854Z,4.47
2022-10-20T04:18:13.892Z,4.75
2022-10-20T04:23:18.995Z,4.32
2022-10-20T04:28:24.139Z,4.80
2022-10-20T04:33:31.874Z,3.85
2022-10-20T04:38:37.768Z,3.47
2022-10-20T04:43:42.894Z,4.82
2022-10-20T04:48:50.706Z,4.32
2022-10-20T04:53:56.219Z,3.92
2022-10-20T04:59:03.310Z,3.67
2022-10-20T05:04:11.088Z,5.40
2022-10-20T05:09:16.831Z,5.00
2022-10-20T05:14:22.410Z,5.45
2022-10-20T05:19:30.235Z,5.95
2022-10-20T05:24:35.372Z,4.95
2022-10-20T05:29:40.475Z,5.32
2022-10-20T05:34:48.245Z,5.72
2022-10-20T05:39:53.340Z,5.20
2022-10-20T05:44:59.126Z,5.45
2022-10-20T05:50:13.190Z,5.00
2022-10-20T05:55:18.399Z,6.38
2022-10-20T06:00:30.516Z,4.68
2022-10-20T06:05:38.284Z,4.65
2022-10-20T06:10:43.352Z,3.15
2022-10-20T06:15:49.422Z,4.60
2022-10-20T06:21:05.013Z,4.03
2022-10-20T06:26:12.707Z,4.15
2022-10-20T06:31:19.592Z,3.88
2022-10-20T06:36:27.915Z,3.95
2022-10-20T06:41:33.254Z,3.38
2022-10-20T06:46:39.428Z,4.13
2022-10-20T06:51:47.215Z,3.17
2022-10-20T06:56:52.348Z,3.58
2022-10-20T07:01:57.576Z,2.97
2022-10-20T07:07:05.587Z,3.40
2022-10-20T07:12:13.079Z,2.95
2022-10-20T07:17:18.238Z,2.85
2022-10-20T07:22:26.003Z,4.05
2022-10-20T07:27:31.182Z,2.65
2022-10-20T07:32:36.440Z,2.90
2022-10-20T07:37:44.432Z,1.75
2022-10-20T07:42:49.967Z,1.80
2022-10-20T07:47:55.052Z,2.13
2022-10-20T07:53:03.062Z,2.35
2022-10-20T07:58:08.211Z,2.17
2022-10-20T08:03:16.368Z,2.13
2022-10-20T08:08:27.084Z,1.73
2022-10-20T08:13:32.823Z,1.95
2022-10-20T08:18:44.789Z,1.95
2022-10-20T08:23:58.083Z,2.47
2022-10-20T08:34:27.136Z,1.88
2022-10-20T08:39:36.153Z,1.58
2022-10-20T08:44:43.222Z,5.93
2022-10-20T08:49:48.743Z,1.10
2022-10-20T08:54:58.254Z,0.95
2022-10-20T09:00:47.979Z,1.13
2022-10-20T09:05:56.866Z,1.33
2022-10-20T09:11:05.145Z,0.83
2022-10-20T09:16:22.177Z,8.48
2022-10-20T09:21:44.074Z,1.98
2022-10-20T09:32:48.377Z,2.20
2022-10-20T09:38:09.462Z,0.90
2022-10-20T09:43:19.094Z,1.10
2022-10-20T09:48:31.959Z,0.80
2022-10-20T09:53:43.273Z,1.10
2022-10-20T09:58:49.731Z,1.50
2022-10-20T10:04:02.217Z,1.60
2022-10-20T10:09:28.942Z,1.63
2022-10-20T10:14:36.308Z,1.65
2022-10-20T10:19:55.624Z,1.48
2022-10-20T10:25:03.363Z,5.22
2022-10-20T10:30:30.608Z,1.70
2022-10-20T10:35:41.572Z,1.40
2022-10-20T10:40:55.688Z,1.08
2022-10-20T10:46:01.944Z,1.80
2022-10-20T10:51:13.328Z,1.42
2022-10-20T10:56:28.447Z,1.52
2022-10-20T11:01:51.361Z,1.52
2022-10-20T11:07:02.132Z,2.33
2022-10-20T11:12:21.913Z,1.20
2022-10-20T11:22:46.196Z,1.70
2022-10-20T11:27:51.675Z,1.40
2022-10-20T11:33:01.372Z,3.53
2022-10-20T11:38:17.095Z,1.67
2022-10-20T11:43:27.459Z,1.42
2022-10-20T11:48:50.759Z,1.27
2022-10-20T12:05:39.553Z,2.20
2022-10-20T12:27:30.774Z,2.13
2022-10-20T12:33:04.575Z,2.30
2022-10-20T12:38:19.739Z,8.50
2022-10-20T12:43:55.439Z,1.75
2022-10-20T12:49:11.772Z,1.70
2022-10-20T12:54:48.496Z,1.58
2022-10-20T12:59:56.893Z,1.92
2022-10-20T13:05:04.292Z,1.92
2022-10-20T13:10:54.132Z,1.42
2022-10-20T13:16:38.863Z,1.67
2022-10-20T13:21:49.957Z,1.60
2022-10-20T13:27:02.788Z,1.20
2022-10-20T13:32:16.080Z,1.33
2022-10-20T13:38:03.063Z,1.70
2022-10-20T13:43:29.155Z,1.15
2022-10-20T13:55:21.350Z,1.60
2022-10-20T14:00:41.312Z,1.40
2022-10-20T14:06:17.053Z,1.60
2022-10-20T14:11:50.240Z,1.38
2022-10-20T14:17:00.861Z,2.30
2022-10-20T14:27:54.208Z,1.92
2022-10-20T14:33:02.989Z,1.60
2022-10-20T14:38:29.663Z,1.50
2022-10-20T14:43:39.643Z,1.85
2022-10-20T15:05:36.979Z,1.65
2022-10-20T15:10:42.307Z,3.85
2022-10-20T15:15:47.442Z,1.92
2022-10-20T15:20:55.920Z,1.75
2022-10-20T15:26:03.196Z,2.03
2022-10-20T15:31:10.517Z,1.63
2022-10-20T15:36:21.067Z,1.83
2022-10-20T15:41:28.277Z,1.60
2022-10-20T15:46:33.552Z,1.75
2022-10-20T15:51:43.397Z,1.33
2022-10-20T15:56:48.513Z,1.55
2022-10-20T16:01:53.521Z,4.00
2022-10-20T16:07:03.174Z,2.90
2022-10-20T16:12:08.907Z,2.20
2022-10-20T16:17:13.973Z,2.17
2022-10-20T16:22:21.652Z,1.63
2022-10-20T16:27:26.716Z,2.10
2022-10-20T16:32:34.591Z,1.77
2022-10-20T16:37:44.223Z,1.90
2022-10-20T16:42:52.412Z,1.60
2022-10-20T16:47:57.695Z,2.17
2022-10-20T16:53:05.461Z,2.67
2022-10-20T16:58:10.501Z,2.67
2022-10-20T17:03:20.116Z,2.80
2022-10-20T17:08:30.611Z,3.05
2022-10-20T17:13:37.620Z,3.58
2022-10-20T17:18:42.865Z,5.65
2022-10-20T17:23:50.740Z,4.47
2022-10-20T17:28:58.399Z,4.57
2022-10-20T17:34:37.615Z,4.30
2022-10-20T17:39:45.514Z,4.53
2022-10-20T17:44:50.704Z,4.40
2022-10-20T17:49:56.069Z,4.70
2022-10-20T17:55:03.881Z,4.60
2022-10-20T18:00:16.457Z,9.88
2022-10-20T18:05:27.754Z,6.78
2022-10-20T18:10:36.513Z,5.82
2022-10-20T18:15:46.636Z,6.90
2022-10-20T18:20:58.127Z,6.43
2022-10-20T18:26:11.129Z,5.88
2022-10-20T18:31:17.965Z,5.93
2022-10-20T18:36:23.436Z,4.90
2022-10-20T18:41:33.247Z,6.20
2022-10-20T18:46:38.693Z,11.35
2022-10-20T18:51:44.325Z,7.28
2022-10-20T18:56:52.045Z,6.80
2022-10-20T19:01:57.412Z,4.97
2022-10-20T19:07:02.749Z,6.43
2022-10-20T19:12:10.898Z,5.15
2022-10-20T19:17:19.387Z,4.78
2022-10-20T19:22:28.390Z,4.10
2022-10-20T19:27:37.110Z,4.20
2022-10-20T19:32:45.277Z,6.00
2022-10-20T19:37:50.737Z,4.90
2022-10-20T19:42:58.499Z,6.50
2022-10-20T19:48:03.669Z,7.05
2022-10-20T19:53:08.955Z,15.93
2022-10-20T19:58:17.145Z,7.50
2022-10-20T20:03:22.568Z,9.05
2022-10-20T20:08:27.801Z,7.72
2022-10-20T20:13:35.882Z,6.47
2022-10-20T20:18:41.014Z,5.88
2022-10-20T20:24:01.760Z,6.35
2022-10-20T20:29:09.565Z,5.32
2022-10-20T20:34:14.674Z,5.43
2022-10-20T20:39:19.785Z,5.95
2022-10-20T20:44:27.894Z,5.57
2022-10-20T20:49:33.041Z,4.82
2022-10-20T20:54:38.210Z,5.50
2022-10-20T20:59:46.034Z,6.95
2022-10-20T21:04:51.330Z,5.18
2022-10-20T21:09:56.493Z,5.97
2022-10-20T21:15:04.326Z,5.35
2022-10-20T21:20:11.013Z,5.75
2022-10-20T21:25:16.261Z,16.27
2022-10-20T21:30:24.143Z,6.75
2022-10-20T21:35:29.425Z,6.55
2022-10-20T21:40:35.187Z,6.05
2022-10-20T21:45:50.615Z,4.90
2022-10-20T21:50:57.533Z,5.05
2022-10-20T21:56:02.816Z,4.85
2022-10-20T22:01:19.485Z,4.72
2022-10-20T22:06:26.137Z,4.03
2022-10-20T22:11:33.157Z,5.57
2022-10-20T22:16:43.398Z,4.45
2022-10-20T22:21:50.263Z,4.95
2022-10-20T22:26:56.060Z,4.93
2022-10-20T22:32:03.934Z,4.63
2022-10-20T22:37:09.121Z,4.95
2022-10-20T22:42:14.535Z,4.85
2022-10-20T22:47:22.653Z,4.63
2022-10-20T22:52:28.061Z,6.13
2022-10-20T22:57:34.566Z,7.47
2022-10-20T23:02:42.401Z,5.95
2022-10-20T23:07:47.572Z,5.57
2022-10-20T23:12:52.867Z,5.93
2022-10-20T23:18:00.751Z,6.75
2022-10-20T23:23:05.977Z,6.13
2022-10-20T23:28:11.357Z,5.78
2022-10-20T23:33:19.364Z,5.88
2022-10-20T23:38:24.573Z,6.20
2022-10-20T23:43:29.932Z,7.00
2022-10-20T23:48:38.187Z,6.53
2022-10-20T23:53:43.390Z,7.25
2022-10-20T23:58:48.911Z,7.00
